createdAt,value
2022-09-28T00:03:21.063Z,97048.05
2022-09-28T00:09:21.729Z,97044.77
2022-09-28T00:14:24.770Z,97044.27
2022-09-28T00:19:37.225Z,97043.14
2022-09-28T00:24:53.829Z,97048.95
2022-09-28T00:31:37.565Z,97042.58
2022-09-28T00:38:00.453Z,97038.37
2022-09-28T00:43:28.316Z,97038.80
2022-09-28T00:49:50.270Z,97041.12
2022-09-28T00:55:03.932Z,97039.60
2022-09-28T01:01:05.198Z,97043.51
2022-09-28T01:07:55.446Z,97047.74
2022-09-28T01:14:36.156Z,97038.61
2022-09-28T01:20:57.569Z,97043.29
2022-09-28T01:27:09.494Z,97047.01
2022-09-28T01:34:02.472Z,97046.73
2022-09-28T01:40:28.846Z,97044.63
2022-09-28T01:47:41.767Z,97040.23
2022-09-28T01:54:50.983Z,97039.20
2022-09-28T02:01:54.420Z,97037.36
2022-09-28T02:07:53.276Z,97031.06
2022-09-28T02:14:37.144Z,97032.02
2022-09-28T02:21:01.695Z,97034.64
2022-09-28T02:27:34.127Z,97038.84
2022-09-28T02:34:05.509Z,97045.95
2022-09-28T02:40:23.506Z,97049.20
2022-09-28T02:46:29.695Z,97050.58
2022-09-28T02:53:09.661Z,97045.70
2022-09-28T02:59:58.524Z,97045.11
2022-09-28T03:06:18.983Z,97042.05
2022-09-28T03:12:27.340Z,97045.77
2022-09-28T03:18:22.760Z,97043.63
2022-09-28T03:24:04.812Z,97047.19
2022-09-28T03:29:59.327Z,97046.45
2022-09-28T03:36:12.805Z,97052.15
2022-09-28T03:42:59.159Z,97059.55
2022-09-28T03:48:50.622Z,97056.69
2022-09-28T03:54:49.383Z,97052.33
2022-09-28T03:59:54.310Z,97048.06
2022-09-28T04:05:17.070Z,97040.95
2022-09-28T04:11:53.127Z,97045.27
2022-09-28T04:17:49.170Z,97050.09
2022-09-28T04:24:10.312Z,97061.61
2022-09-28T04:29:54.300Z,97049.86
2022-09-28T04:36:06.676Z,97045.16
2022-09-28T04:42:39.664Z,97049.73
2022-09-28T04:48:33.606Z,97042.84
2022-09-28T04:54:48.288Z,97045.06
2022-09-28T05:00:36.138Z,97046.11
2022-09-28T05:06:24.772Z,97039.16
2022-09-28T05:12:11.695Z,97039.48
2022-09-28T05:18:25.839Z,97038.48
2022-09-28T05:23:58.518Z,97047.76
2022-09-28T05:30:26.167Z,97042.92
2022-09-28T05:36:49.077Z,97042.96
2022-09-28T05:42:22.768Z,97046.39
2022-09-28T05:48:02.177Z,97050.35
2022-09-28T05:54:58.597Z,97055.21
2022-09-28T06:01:25.576Z,97053.77
2022-09-28T06:08:07.250Z,97053.55
2022-09-28T06:14:41.226Z,97041.67
2022-09-28T06:20:45.876Z,97030.63
2022-09-28T06:26:18.013Z,97024.70
2022-09-28T06:31:47.038Z,97023.75
2022-09-28T06:37:58.650Z,97032.43
2022-09-28T06:43:21.034Z,97026.90
2022-09-28T06:49:43.627Z,97034.16
2022-09-28T06:55:54.229Z,97030.44
2022-09-28T07:01:56.797Z,97037.13
2022-09-28T07:08:50.130Z,97040.27
2022-09-28T07:15:14.277Z,97043.14
2022-09-28T07:20:44.771Z,97046.83
2022-09-28T07:26:18.946Z,97053.39
2022-09-28T07:31:53.136Z,97052.48
2022-09-28T07:38:44.847Z,97046.71
2022-09-28T07:45:29.744Z,97052.04
2022-09-28T07:52:13.126Z,97051.23
2022-09-28T07:58:16.174Z,97049.05
2022-09-28T08:04:09.760Z,97050.27
2022-09-28T08:09:39.299Z,97047.11
2022-09-28T08:16:20.152Z,97042.98
2022-09-28T08:22:12.031Z,97037.88
2022-09-28T08:27:28.532Z,97031.09
2022-09-28T08:33:18.623Z,97030.19
2022-09-28T08:38:59.394Z,97030.78
2022-09-28T08:45:35.916Z,97031.08
2022-09-28T08:52:32.442Z,97026.88
2022-09-28T08:58:42.845Z,97030.34
2022-09-28T09:04:17.514Z,97035.39
2022-09-28T09:10:03.979Z,97044.63
2022-09-28T09:16:14.667Z,97044.66
2022-09-28T09:23:00.209Z,97042.67
2022-09-28T09:29:18.714Z,97033.44
2022-09-28T09:35:55.121Z,97033.33
2022-09-28T09:41:51.581Z,97039.60
2022-09-28T09:48:09.856Z,97033.21
2022-09-28T09:54:36.960Z,97032.17
2022-09-28T10:00:59.171Z,97029.66
2022-09-28T10:07:48.535Z,97017.14
2022-09-28T10:14:01.157Z,97009.95
2022-09-28T10:21:13.521Z,96995.25
2022-09-28T10:27:14.593Z,96987.79
2022-09-28T10:33:14.470Z,96984.45
2022-09-28T10:39:24.517Z,96978.46
2022-09-28T10:45:43.698Z,96969.69
2022-09-28T10:52:14.783Z,96967.42
2022-09-28T10:57:39.830Z,96949.95
2022-09-28T11:02:44.153Z,96952.39
2022-09-28T11:08:19.310Z,96945.25
2022-09-28T11:13:35.725Z,96937.38
2022-09-28T11:18:41.141Z,96927.87
2022-09-28T11:24:35.956Z,96923.16
2022-09-28T11:29:46.947Z,96931.08
2022-09-28T11:35:16.422Z,96932.34
2022-09-28T11:41:09.226Z,96922.99
2022-09-28T11:47:00.513Z,96909.05
2022-09-28T11:52:14.642Z,96902.86
2022-09-28T11:57:36.875Z,96912.30
2022-09-28T12:03:33.349Z,96911.38
2022-09-28T12:08:46.130Z,96905.04
2022-09-28T12:14:46.721Z,96903.42
2022-09-28T12:20:27.568Z,96900.03
2022-09-28T12:25:39.537Z,96907.33
2022-09-28T12:30:47.612Z,96904.41
2022-09-28T12:36:09.160Z,96895.13
2022-09-28T12:42:07.407Z,96887.75
2022-09-28T12:47:28.346Z,96884.91
2022-09-28T12:52:53.696Z,96887.14
2022-09-28T12:58:36.485Z,96884.89
2022-09-28T13:04:29.798Z,96886.14
2022-09-28T13:10:35.014Z,96882.93
2022-09-28T13:16:09.647Z,96875.27
2022-09-28T13:22:04.076Z,96869.06
2022-09-28T13:27:19.531Z,96867.02
2022-09-28T13:32:46.065Z,96863.76
2022-09-28T13:38:49.524Z,96866.98
2022-09-28T13:43:58.623Z,96862.45
2022-09-28T13:50:00.021Z,96856.37
2022-09-28T13:55:39.335Z,96847.92
2022-09-28T14:01:09.088Z,96846.88
2022-09-28T14:07:33.653Z,96846.53
2022-09-28T14:13:17.067Z,96835.89
2022-09-28T14:18:55.191Z,96830.65
2022-09-28T14:24:54.315Z,96824.71
2022-09-28T14:30:48.373Z,96818.80
2022-09-28T14:35:58.350Z,96812.60
2022-09-28T14:41:57.559Z,96825.42
2022-09-28T14:47:33.422Z,96819.80
2022-09-28T14:53:20.722Z,96813.28
2022-09-28T14:58:27.598Z,96804.20
2022-09-28T15:03:36.452Z,96804.02
2022-09-28T15:09:36.660Z,96809.52
2022-09-28T15:15:37.251Z,96815.25
2022-09-28T15:20:48.082Z,96816.52
2022-09-28T15:26:03.980Z,96819.41
2022-09-28T15:31:41.666Z,96823.40
2022-09-28T15:37:45.973Z,96824.58
2022-09-28T15:43:41.509Z,96834.37
2022-09-28T15:48:59.665Z,96828.95
2022-09-28T15:54:32.697Z,96826.95
2022-09-28T15:59:59.611Z,96827.64
2022-09-28T16:06:17.653Z,96833.52
2022-09-28T16:11:38.907Z,96824.55
2022-09-28T16:16:55.193Z,96814.81
2022-09-28T16:22:11.159Z,96828.65
2022-09-28T16:28:02.573Z,96845.85
2022-09-28T16:34:19.736Z,96859.80
2022-09-28T16:39:43.229Z,96863.29
2022-09-28T16:45:21.659Z,96868.39
2022-09-28T16:50:26.430Z,96869.66
2022-09-28T16:55:53.368Z,96872.38
2022-09-28T17:01:20.897Z,96881.11
2022-09-28T17:06:36.701Z,96886.05
2022-09-28T17:12:02.602Z,96890.79
2022-09-28T17:17:10.579Z,96894.53
2022-09-28T17:23:24.756Z,96906.82
2022-09-28T17:29:01.570Z,96915.71
2022-09-28T17:34:55.966Z,96920.71
2022-09-28T17:40:51.159Z,96916.98
2022-09-28T17:46:47.652Z,96925.72
2022-09-28T17:52:32.254Z,96933.04
2022-09-28T17:58:42.509Z,96933.64
2022-09-28T18:05:11.473Z,96941.69
2022-09-28T18:11:47.037Z,96940.13
2022-09-28T18:18:19.764Z,96939.95
2022-09-28T18:24:15.509Z,96937.78
2022-09-28T18:30:21.163Z,96952.68
2022-09-28T18:36:53.501Z,96951.55
2022-09-28T18:42:32.276Z,96955.80
2022-09-28T18:47:59.777Z,96964.16
2022-09-28T18:53:34.217Z,96967.52
2022-09-28T18:58:58.501Z,96965.31
2022-09-28T19:04:42.579Z,96969.31
2022-09-28T19:10:22.971Z,96971.46
2022-09-28T19:16:28.759Z,96977.89
2022-09-28T19:21:47.259Z,96979.27
2022-09-28T19:27:11.189Z,96983.70
2022-09-28T19:32:42.955Z,96986.81
2022-09-28T19:37:46.765Z,96990.31
2022-09-28T19:42:56.547Z,97002.01
2022-09-28T19:47:59.559Z,97016.00
2022-09-28T19:53:30.362Z,97030.73
2022-09-28T19:58:52.644Z,97028.12
2022-09-28T20:04:16.508Z,97034.09
2022-09-28T20:09:42.335Z,97057.42
2022-09-28T20:14:45.176Z,97058.85
2022-09-28T20:19:51.825Z,97065.48
2022-09-28T20:25:24.806Z,97065.77
2022-09-28T20:30:27.308Z,97057.27
2022-09-28T20:35:57.677Z,97070.67
2022-09-28T20:41:36.861Z,97086.81
2022-09-28T20:47:18.628Z,97079.47
2022-09-28T20:53:00.196Z,97081.66
2022-09-28T20:58:54.309Z,97094.17
2022-09-28T21:04:37.168Z,97105.83
2022-09-28T21:11:10.682Z,97103.51
2022-09-28T21:16:47.990Z,97103.24
2022-09-28T21:22:10.412Z,97108.63
2022-09-28T21:27:46.099Z,97095.52
2022-09-28T21:33:28.936Z,97118.13
2022-09-28T21:39:11.667Z,97121.05
2022-09-28T21:45:25.017Z,97122.11
2022-09-28T21:50:28.383Z,97123.23
2022-09-28T21:56:31.601Z,97124.25
2022-09-28T22:01:44.351Z,97132.13
2022-09-28T22:07:32.297Z,97143.70
2022-09-28T22:13:15.020Z,97150.95
2022-09-28T22:18:54.349Z,97164.67
2022-09-28T22:26:10.142Z,97169.77
2022-09-28T22:32:26.614Z,97170.06
2022-09-28T22:38:58.835Z,97165.11
2022-09-28T22:45:22.022Z,97166.90
2022-09-28T22:52:25.349Z,97179.98
2022-09-28T22:58:26.792Z,97181.23
2022-09-28T23:04:50.050Z,97178.34
2022-09-28T23:11:43.477Z,97168.25
2022-09-28T23:18:21.630Z,97168.34
2022-09-28T23:24:30.859Z,97165.77
2022-09-28T23:31:12.017Z,97193.91
2022-09-28T23:37:48.409Z,97198.35
2022-09-28T23:43:46.978Z,97197.90
2022-09-28T23:49:53.169Z,97204.83
2022-09-28T23:55:26.019Z,97203.71
